sensor_id;sensor_type;location;lat;lon;timestamp;P1;durP1;ratioP1;P2;durP2;ratioP2
69083;SDS011;56185;48.526;9.044;2023-07-31T00:02:22;5.82;;;1.85;;
69083;SDS011;56185;48.526;9.044;2023-07-31T00:04:48;4.90;;;1.98;;
69083;SDS011;56185;48.526;9.044;2023-07-31T00:07:13;4.57;;;1.70;;
69083;SDS011;56185;48.526;9.044;2023-07-31T00:09:38;5.23;;;1.80;;
69083;SDS011;56185;48.526;9.044;2023-07-31T00:12:03;5.40;;;2.00;;
69083;SDS011;56185;48.526;9.044;2023-07-31T00:14:29;6.18;;;2.00;;
69083;SDS011;56185;48.526;9.044;2023-07-31T00:16:54;3.03;;;1.70;;
69083;SDS011;56185;48.526;9.044;2023-07-31T00:19:19;6.00;;;1.93;;
69083;SDS011;56185;48.526;9.044;2023-07-31T00:21:45;3.33;;;1.80;;
69083;SDS011;56185;48.526;9.044;2023-07-31T00:24:10;3.90;;;2.00;;
69083;SDS011;56185;48.526;9.044;2023-07-31T00:26:35;3.87;;;1.70;;
69083;SDS011;56185;48.526;9.044;2023-07-31T00:29:01;4.05;;;1.70;;
69083;SDS011;56185;48.526;9.044;2023-07-31T00:31:26;5.40;;;2.10;;
69083;SDS011;56185;48.526;9.044;2023-07-31T00:33:51;3.85;;;2.13;;
69083;SDS011;56185;48.526;9.044;2023-07-31T00:36:21;2.93;;;1.87;;
69083;SDS011;56185;48.526;9.044;2023-07-31T00:38:47;3.50;;;1.75;;
69083;SDS011;56185;48.526;9.044;2023-07-31T00:41:12;8.03;;;2.20;;
69083;SDS011;56185;48.526;9.044;2023-07-31T00:43:37;3.07;;;2.00;;
69083;SDS011;56185;48.526;9.044;2023-07-31T00:46:02;3.50;;;1.80;;
69083;SDS011;56185;48.526;9.044;2023-07-31T00:48:28;2.58;;;1.80;;
69083;SDS011;56185;48.526;9.044;2023-07-31T00:50:53;3.35;;;1.88;;
69083;SDS011;56185;48.526;9.044;2023-07-31T00:53:18;5.13;;;1.90;;
69083;SDS011;56185;48.526;9.044;2023-07-31T00:55:44;6.80;;;2.08;;
69083;SDS011;56185;48.526;9.044;2023-07-31T00:58:21;4.35;;;1.90;;
69083;SDS011;56185;48.526;9.044;2023-07-31T01:00:46;4.57;;;1.92;;
69083;SDS011;56185;48.526;9.044;2023-07-31T01:03:11;4.47;;;2.10;;
69083;SDS011;56185;48.526;9.044;2023-07-31T01:05:46;8.13;;;1.90;;
69083;SDS011;56185;48.526;9.044;2023-07-31T01:08:37;3.67;;;2.03;;
69083;SDS011;56185;48.526;9.044;2023-07-31T01:11:28;3.13;;;1.80;;
69083;SDS011;56185;48.526;9.044;2023-07-31T01:13:55;2.90;;;1.80;;
69083;SDS011;56185;48.526;9.044;2023-07-31T01:16:21;5.60;;;2.10;;
69083;SDS011;56185;48.526;9.044;2023-07-31T01:18:46;3.35;;;2.20;;
69083;SDS011;56185;48.526;9.044;2023-07-31T01:26:42;3.92;;;1.90;;
69083;SDS011;56185;48.526;9.044;2023-07-31T01:31:57;4.32;;;1.88;;
69083;SDS011;56185;48.526;9.044;2023-07-31T01:34:26;3.03;;;1.85;;
69083;SDS011;56185;48.526;9.044;2023-07-31T01:37:03;6.72;;;2.10;;
69083;SDS011;56185;48.526;9.044;2023-07-31T01:39:28;4.43;;;1.85;;
69083;SDS011;56185;48.526;9.044;2023-07-31T01:41:54;2.80;;;1.80;;
69083;SDS011;56185;48.526;9.044;2023-07-31T01:44:19;5.20;;;1.73;;
69083;SDS011;56185;48.526;9.044;2023-07-31T01:47:00;7.77;;;2.00;;
69083;SDS011;56185;48.526;9.044;2023-07-31T01:49:25;5.45;;;1.73;;
69083;SDS011;56185;48.526;9.044;2023-07-31T01:51:51;5.03;;;1.80;;
69083;SDS011;56185;48.526;9.044;2023-07-31T01:54:30;3.83;;;1.70;;
69083;SDS011;56185;48.526;9.044;2023-07-31T01:56:55;4.55;;;1.80;;
69083;SDS011;56185;48.526;9.044;2023-07-31T01:59:21;3.90;;;1.60;;
69083;SDS011;56185;48.526;9.044;2023-07-31T02:01:46;5.77;;;1.80;;
69083;SDS011;56185;48.526;9.044;2023-07-31T02:04:11;5.40;;;1.80;;
69083;SDS011;56185;48.526;9.044;2023-07-31T02:06:36;4.43;;;1.70;;
69083;SDS011;56185;48.526;9.044;2023-07-31T02:09:02;3.05;;;1.67;;
69083;SDS011;56185;48.526;9.044;2023-07-31T02:11:27;5.15;;;2.30;;
69083;SDS011;56185;48.526;9.044;2023-07-31T02:13:53;2.80;;;1.80;;
69083;SDS011;56185;48.526;9.044;2023-07-31T02:16:18;4.82;;;1.67;;
69083;SDS011;56185;48.526;9.044;2023-07-31T02:18:43;5.60;;;2.10;;
69083;SDS011;56185;48.526;9.044;2023-07-31T02:21:09;3.23;;;1.83;;
69083;SDS011;56185;48.526;9.044;2023-07-31T02:23:37;3.55;;;2.08;;
69083;SDS011;56185;48.526;9.044;2023-07-31T02:26:02;3.17;;;1.88;;
69083;SDS011;56185;48.526;9.044;2023-07-31T02:28:28;4.00;;;2.00;;
69083;SDS011;56185;48.526;9.044;2023-07-31T02:30:57;4.55;;;2.03;;
69083;SDS011;56185;48.526;9.044;2023-07-31T02:33:23;3.55;;;1.98;;
69083;SDS011;56185;48.526;9.044;2023-07-31T02:35:48;5.90;;;2.10;;
69083;SDS011;56185;48.526;9.044;2023-07-31T02:38:13;4.30;;;1.80;;
69083;SDS011;56185;48.526;9.044;2023-07-31T02:40:39;3.10;;;1.60;;
69083;SDS011;56185;48.526;9.044;2023-07-31T02:43:05;3.80;;;2.20;;
69083;SDS011;56185;48.526;9.044;2023-07-31T02:45:30;3.83;;;1.83;;
69083;SDS011;56185;48.526;9.044;2023-07-31T02:47:55;2.27;;;1.70;;
69083;SDS011;56185;48.526;9.044;2023-07-31T02:50:20;4.33;;;1.87;;
69083;SDS011;56185;48.526;9.044;2023-07-31T02:52:46;5.27;;;2.20;;
69083;SDS011;56185;48.526;9.044;2023-07-31T02:55:11;2.43;;;1.83;;
69083;SDS011;56185;48.526;9.044;2023-07-31T02:57:36;4.43;;;2.03;;
69083;SDS011;56185;48.526;9.044;2023-07-31T03:00:01;5.50;;;1.90;;
69083;SDS011;56185;48.526;9.044;2023-07-31T03:02:27;4.20;;;1.90;;
69083;SDS011;56185;48.526;9.044;2023-07-31T03:04:53;3.00;;;1.63;;
69083;SDS011;56185;48.526;9.044;2023-07-31T03:07:18;5.28;;;2.03;;
69083;SDS011;56185;48.526;9.044;2023-07-31T03:09:43;4.03;;;2.00;;
69083;SDS011;56185;48.526;9.044;2023-07-31T03:12:09;5.50;;;2.00;;
69083;SDS011;56185;48.526;9.044;2023-07-31T03:14:34;2.50;;;1.83;;
69083;SDS011;56185;48.526;9.044;2023-07-31T03:17:06;6.13;;;1.80;;
69083;SDS011;56185;48.526;9.044;2023-07-31T03:19:32;2.67;;;1.92;;
69083;SDS011;56185;48.526;9.044;2023-07-31T03:21:58;3.10;;;1.77;;
69083;SDS011;56185;48.526;9.044;2023-07-31T03:24:24;4.72;;;1.92;;
69083;SDS011;56185;48.526;9.044;2023-07-31T03:26:49;4.03;;;1.98;;
69083;SDS011;56185;48.526;9.044;2023-07-31T03:29:14;4.63;;;1.90;;
69083;SDS011;56185;48.526;9.044;2023-07-31T03:31:39;3.60;;;1.70;;
69083;SDS011;56185;48.526;9.044;2023-07-31T03:34:05;5.33;;;2.10;;
69083;SDS011;56185;48.526;9.044;2023-07-31T03:36:30;6.27;;;1.97;;
69083;SDS011;56185;48.526;9.044;2023-07-31T03:38:55;6.30;;;1.97;;
69083;SDS011;56185;48.526;9.044;2023-07-31T03:41:20;5.60;;;1.93;;
69083;SDS011;56185;48.526;9.044;2023-07-31T03:43:47;4.07;;;1.70;;
69083;SDS011;56185;48.526;9.044;2023-07-31T03:46:14;4.35;;;2.00;;
69083;SDS011;56185;48.526;9.044;2023-07-31T03:48:39;3.58;;;1.98;;
69083;SDS011;56185;48.526;9.044;2023-07-31T03:51:04;5.53;;;1.83;;
69083;SDS011;56185;48.526;9.044;2023-07-31T03:56:14;4.75;;;1.90;;
69083;SDS011;56185;48.526;9.044;2023-07-31T03:58:39;4.90;;;1.80;;
69083;SDS011;56185;48.526;9.044;2023-07-31T04:01:14;2.70;;;1.70;;
69083;SDS011;56185;48.526;9.044;2023-07-31T04:03:39;3.08;;;1.77;;
69083;SDS011;56185;48.526;9.044;2023-07-31T04:06:04;4.10;;;1.83;;
69083;SDS011;56185;48.526;9.044;2023-07-31T04:08:31;2.70;;;1.80;;
69083;SDS011;56185;48.526;9.044;2023-07-31T04:10:56;4.38;;;1.55;;
69083;SDS011;56185;48.526;9.044;2023-07-31T04:13:22;4.87;;;1.73;;
69083;SDS011;56185;48.526;9.044;2023-07-31T04:15:48;7.03;;;2.00;;
69083;SDS011;56185;48.526;9.044;2023-07-31T04:18:13;3.72;;;1.90;;
69083;SDS011;56185;48.526;9.044;2023-07-31T04:20:39;3.03;;;1.80;;
69083;SDS011;56185;48.526;9.044;2023-07-31T04:23:04;2.63;;;1.60;;
69083;SDS011;56185;48.526;9.044;2023-07-31T04:25:29;4.63;;;2.00;;
69083;SDS011;56185;48.526;9.044;2023-07-31T04:27:54;5.87;;;2.00;;
69083;SDS011;56185;48.526;9.044;2023-07-31T04:30:20;2.77;;;1.80;;
69083;SDS011;56185;48.526;9.044;2023-07-31T04:32:58;5.57;;;2.10;;
69083;SDS011;56185;48.526;9.044;2023-07-31T04:38:13;6.95;;;2.75;;
69083;SDS011;56185;48.526;9.044;2023-07-31T04:40:38;5.18;;;2.22;;
69083;SDS011;56185;48.526;9.044;2023-07-31T04:43:03;5.10;;;2.50;;
69083;SDS011;56185;48.526;9.044;2023-07-31T04:45:28;3.70;;;2.30;;
69083;SDS011;56185;48.526;9.044;2023-07-31T04:47:54;5.73;;;2.27;;
69083;SDS011;56185;48.526;9.044;2023-07-31T04:50:19;4.47;;;2.43;;
69083;SDS011;56185;48.526;9.044;2023-07-31T04:52:44;6.53;;;2.58;;
69083;SDS011;56185;48.526;9.044;2023-07-31T04:55:10;6.20;;;2.50;;
69083;SDS011;56185;48.526;9.044;2023-07-31T04:57:35;6.33;;;2.60;;
69083;SDS011;56185;48.526;9.044;2023-07-31T05:00:00;6.53;;;2.53;;
69083;SDS011;56185;48.526;9.044;2023-07-31T05:02:25;7.83;;;2.83;;
69083;SDS011;56185;48.526;9.044;2023-07-31T05:04:50;6.20;;;2.60;;
69083;SDS011;56185;48.526;9.044;2023-07-31T05:07:16;7.23;;;2.80;;
69083;SDS011;56185;48.526;9.044;2023-07-31T05:09:41;6.67;;;2.70;;
69083;SDS011;56185;48.526;9.044;2023-07-31T05:12:06;8.57;;;2.57;;
69083;SDS011;56185;48.526;9.044;2023-07-31T05:14:32;6.80;;;2.50;;
69083;SDS011;56185;48.526;9.044;2023-07-31T05:16:57;5.63;;;2.70;;
69083;SDS011;56185;48.526;9.044;2023-07-31T05:19:22;7.23;;;3.43;;
69083;SDS011;56185;48.526;9.044;2023-07-31T05:21:47;6.73;;;3.00;;
69083;SDS011;56185;48.526;9.044;2023-07-31T05:24:13;8.17;;;3.20;;
69083;SDS011;56185;48.526;9.044;2023-07-31T05:26:38;8.13;;;3.25;;
69083;SDS011;56185;48.526;9.044;2023-07-31T05:29:03;8.73;;;3.17;;
69083;SDS011;56185;48.526;9.044;2023-07-31T05:31:28;7.33;;;3.40;;
69083;SDS011;56185;48.526;9.044;2023-07-31T05:33:54;4.60;;;2.58;;
69083;SDS011;56185;48.526;9.044;2023-07-31T05:36:19;5.07;;;2.60;;
69083;SDS011;56185;48.526;9.044;2023-07-31T05:38:44;5.40;;;3.10;;
69083;SDS011;56185;48.526;9.044;2023-07-31T05:41:11;3.20;;;2.10;;
69083;SDS011;56185;48.526;9.044;2023-07-31T05:43:37;3.85;;;2.20;;
69083;SDS011;56185;48.526;9.044;2023-07-31T05:46:02;4.27;;;2.20;;
69083;SDS011;56185;48.526;9.044;2023-07-31T05:48:27;4.50;;;2.17;;
69083;SDS011;56185;48.526;9.044;2023-07-31T05:50:54;7.10;;;2.17;;
69083;SDS011;56185;48.526;9.044;2023-07-31T05:53:19;4.43;;;2.15;;
69083;SDS011;56185;48.526;9.044;2023-07-31T05:55:44;3.13;;;1.90;;
69083;SDS011;56185;48.526;9.044;2023-07-31T05:58:09;6.13;;;2.22;;
69083;SDS011;56185;48.526;9.044;2023-07-31T06:00:35;6.40;;;2.08;;
69083;SDS011;56185;48.526;9.044;2023-07-31T06:03:00;6.85;;;2.40;;
69083;SDS011;56185;48.526;9.044;2023-07-31T06:05:25;3.63;;;2.08;;
69083;SDS011;56185;48.526;9.044;2023-07-31T06:07:51;4.18;;;1.95;;
69083;SDS011;56185;48.526;9.044;2023-07-31T06:10:16;6.33;;;2.10;;
69083;SDS011;56185;48.526;9.044;2023-07-31T06:12:41;6.43;;;1.90;;
69083;SDS011;56185;48.526;9.044;2023-07-31T06:15:06;4.63;;;1.83;;
69083;SDS011;56185;48.526;9.044;2023-07-31T06:17:32;2.50;;;1.77;;
69083;SDS011;56185;48.526;9.044;2023-07-31T06:19:57;2.83;;;1.90;;
69083;SDS011;56185;48.526;9.044;2023-07-31T06:22:22;4.73;;;2.10;;
69083;SDS011;56185;48.526;9.044;2023-07-31T06:24:47;5.22;;;1.90;;
69083;SDS011;56185;48.526;9.044;2023-07-31T06:27:13;4.15;;;1.90;;
69083;SDS011;56185;48.526;9.044;2023-07-31T06:29:38;3.30;;;2.10;;
69083;SDS011;56185;48.526;9.044;2023-07-31T06:32:03;3.22;;;1.95;;
69083;SDS011;56185;48.526;9.044;2023-07-31T06:34:29;4.88;;;1.90;;
69083;SDS011;56185;48.526;9.044;2023-07-31T06:36:55;6.40;;;2.00;;
69083;SDS011;56185;48.526;9.044;2023-07-31T06:39:23;5.25;;;2.10;;
69083;SDS011;56185;48.526;9.044;2023-07-31T06:41:48;4.37;;;1.97;;
69083;SDS011;56185;48.526;9.044;2023-07-31T06:44:13;4.47;;;2.10;;
69083;SDS011;56185;48.526;9.044;2023-07-31T06:46:38;4.60;;;1.90;;
69083;SDS011;56185;48.526;9.044;2023-07-31T06:49:03;4.33;;;1.70;;
69083;SDS011;56185;48.526;9.044;2023-07-31T06:51:29;4.90;;;1.80;;
69083;SDS011;56185;48.526;9.044;2023-07-31T06:53:54;7.37;;;1.97;;
69083;SDS011;56185;48.526;9.044;2023-07-31T06:56:20;7.10;;;1.83;;
69083;SDS011;56185;48.526;9.044;2023-07-31T06:58:45;3.53;;;1.70;;
69083;SDS011;56185;48.526;9.044;2023-07-31T07:01:11;3.97;;;1.90;;
69083;SDS011;56185;48.526;9.044;2023-07-31T07:03:36;2.53;;;1.57;;
69083;SDS011;56185;48.526;9.044;2023-07-31T07:06:01;3.90;;;1.50;;
69083;SDS011;56185;48.526;9.044;2023-07-31T07:08:26;4.33;;;1.80;;
69083;SDS011;56185;48.526;9.044;2023-07-31T07:10:52;4.37;;;1.70;;
69083;SDS011;56185;48.526;9.044;2023-07-31T07:13:17;4.10;;;1.77;;
69083;SDS011;56185;48.526;9.044;2023-07-31T07:15:42;4.97;;;1.70;;
69083;SDS011;56185;48.526;9.044;2023-07-31T07:18:07;3.07;;;1.80;;
69083;SDS011;56185;48.526;9.044;2023-07-31T07:20:32;4.40;;;1.80;;
69083;SDS011;56185;48.526;9.044;2023-07-31T07:22:58;3.70;;;1.70;;
69083;SDS011;56185;48.526;9.044;2023-07-31T07:25:23;5.97;;;2.10;;
69083;SDS011;56185;48.526;9.044;2023-07-31T07:27:48;4.18;;;1.80;;
69083;SDS011;56185;48.526;9.044;2023-07-31T07:30:13;3.10;;;1.60;;
69083;SDS011;56185;48.526;9.044;2023-07-31T07:32:39;3.63;;;1.70;;
69083;SDS011;56185;48.526;9.044;2023-07-31T07:35:04;5.20;;;2.07;;
69083;SDS011;56185;48.526;9.044;2023-07-31T07:37:30;4.13;;;1.83;;
69083;SDS011;56185;48.526;9.044;2023-07-31T07:39:55;8.57;;;1.93;;
69083;SDS011;56185;48.526;9.044;2023-07-31T07:42:21;3.65;;;1.63;;
69083;SDS011;56185;48.526;9.044;2023-07-31T07:44:46;5.15;;;1.80;;
69083;SDS011;56185;48.526;9.044;2023-07-31T07:47:12;3.47;;;1.60;;
69083;SDS011;56185;48.526;9.044;2023-07-31T07:49:37;4.95;;;1.80;;
69083;SDS011;56185;48.526;9.044;2023-07-31T07:52:03;3.10;;;1.57;;
69083;SDS011;56185;48.526;9.044;2023-07-31T07:54:28;4.47;;;1.70;;
69083;SDS011;56185;48.526;9.044;2023-07-31T07:56:53;6.30;;;1.53;;
69083;SDS011;56185;48.526;9.044;2023-07-31T07:59:19;4.20;;;1.60;;
69083;SDS011;56185;48.526;9.044;2023-07-31T08:01:44;6.77;;;1.67;;
69083;SDS011;56185;48.526;9.044;2023-07-31T08:04:09;5.07;;;1.80;;
69083;SDS011;56185;48.526;9.044;2023-07-31T08:06:34;2.78;;;1.50;;
69083;SDS011;56185;48.526;9.044;2023-07-31T08:09:00;3.03;;;1.60;;
69083;SDS011;56185;48.526;9.044;2023-07-31T08:11:25;3.67;;;1.83;;
69083;SDS011;56185;48.526;9.044;2023-07-31T08:13:50;5.87;;;1.83;;
69083;SDS011;56185;48.526;9.044;2023-07-31T08:16:15;4.67;;;1.50;;
69083;SDS011;56185;48.526;9.044;2023-07-31T08:18:41;4.80;;;1.58;;
69083;SDS011;56185;48.526;9.044;2023-07-31T08:21:06;4.30;;;1.70;;
69083;SDS011;56185;48.526;9.044;2023-07-31T08:23:31;3.00;;;1.50;;
69083;SDS011;56185;48.526;9.044;2023-07-31T08:25:57;5.60;;;1.80;;
69083;SDS011;56185;48.526;9.044;2023-07-31T08:28:22;4.33;;;1.70;;
69083;SDS011;56185;48.526;9.044;2023-07-31T08:30:47;5.03;;;1.80;;
69083;SDS011;56185;48.526;9.044;2023-07-31T08:33:12;4.47;;;1.53;;
69083;SDS011;56185;48.526;9.044;2023-07-31T08:35:44;3.63;;;1.50;;
69083;SDS011;56185;48.526;9.044;2023-07-31T08:38:09;4.73;;;1.60;;
69083;SDS011;56185;48.526;9.044;2023-07-31T08:40:37;4.35;;;1.48;;
69083;SDS011;56185;48.526;9.044;2023-07-31T08:43:02;3.22;;;1.60;;
69083;SDS011;56185;48.526;9.044;2023-07-31T08:45:28;4.10;;;1.80;;
69083;SDS011;56185;48.526;9.044;2023-07-31T08:47:54;5.75;;;1.70;;
69083;SDS011;56185;48.526;9.044;2023-07-31T08:50:20;3.25;;;1.63;;
69083;SDS011;56185;48.526;9.044;2023-07-31T08:52:46;5.28;;;1.48;;
69083;SDS011;56185;48.526;9.044;2023-07-31T08:55:13;7.32;;;1.83;;
69083;SDS011;56185;48.526;9.044;2023-07-31T08:57:39;4.03;;;1.60;;
69083;SDS011;56185;48.526;9.044;2023-07-31T09:00:05;3.53;;;1.70;;
69083;SDS011;56185;48.526;9.044;2023-07-31T09:02:37;4.10;;;1.70;;
69083;SDS011;56185;48.526;9.044;2023-07-31T09:07:31;3.80;;;1.58;;
69083;SDS011;56185;48.526;9.044;2023-07-31T09:10:00;2.83;;;1.50;;
69083;SDS011;56185;48.526;9.044;2023-07-31T09:12:26;3.05;;;1.42;;
69083;SDS011;56185;48.526;9.044;2023-07-31T09:14:51;4.70;;;1.80;;
69083;SDS011;56185;48.526;9.044;2023-07-31T09:17:28;4.90;;;1.63;;
69083;SDS011;56185;48.526;9.044;2023-07-31T09:19:54;5.85;;;1.85;;
69083;SDS011;56185;48.526;9.044;2023-07-31T09:22:25;4.27;;;1.80;;
69083;SDS011;56185;48.526;9.044;2023-07-31T09:24:56;4.35;;;1.70;;
69083;SDS011;56185;48.526;9.044;2023-07-31T09:30:21;5.85;;;1.90;;
69083;SDS011;56185;48.526;9.044;2023-07-31T09:32:47;8.27;;;2.20;;
69083;SDS011;56185;48.526;9.044;2023-07-31T09:35:18;6.57;;;1.95;;
69083;SDS011;56185;48.526;9.044;2023-07-31T09:37:48;3.72;;;1.60;;
69083;SDS011;56185;48.526;9.044;2023-07-31T09:40:24;4.75;;;1.90;;
69083;SDS011;56185;48.526;9.044;2023-07-31T09:42:50;4.40;;;1.70;;
69083;SDS011;56185;48.526;9.044;2023-07-31T09:45:16;5.53;;;1.80;;
69083;SDS011;56185;48.526;9.044;2023-07-31T09:47:47;5.50;;;1.83;;
69083;SDS011;56185;48.526;9.044;2023-07-31T09:50:12;4.88;;;1.88;;
69083;SDS011;56185;48.526;9.044;2023-07-31T09:52:39;3.78;;;2.00;;
69083;SDS011;56185;48.526;9.044;2023-07-31T09:55:04;5.20;;;1.70;;
69083;SDS011;56185;48.526;9.044;2023-07-31T09:57:30;4.55;;;1.83;;
69083;SDS011;56185;48.526;9.044;2023-07-31T09:59:56;3.80;;;1.58;;
69083;SDS011;56185;48.526;9.044;2023-07-31T10:02:22;3.20;;;1.70;;
69083;SDS011;56185;48.526;9.044;2023-07-31T10:04:49;4.55;;;1.90;;
69083;SDS011;56185;48.526;9.044;2023-07-31T10:07:16;5.32;;;1.80;;
69083;SDS011;56185;48.526;9.044;2023-07-31T10:09:42;3.08;;;1.45;;
69083;SDS011;56185;48.526;9.044;2023-07-31T10:12:08;3.67;;;1.83;;
69083;SDS011;56185;48.526;9.044;2023-07-31T10:14:36;2.72;;;1.63;;
69083;SDS011;56185;48.526;9.044;2023-07-31T10:17:03;5.75;;;2.22;;
69083;SDS011;56185;48.526;9.044;2023-07-31T10:19:30;3.50;;;1.77;;
69083;SDS011;56185;48.526;9.044;2023-07-31T10:21:55;3.78;;;1.55;;
69083;SDS011;56185;48.526;9.044;2023-07-31T10:24:22;4.18;;;1.77;;
69083;SDS011;56185;48.526;9.044;2023-07-31T10:26:49;3.17;;;1.52;;
69083;SDS011;56185;48.526;9.044;2023-07-31T10:29:16;3.08;;;1.52;;
69083;SDS011;56185;48.526;9.044;2023-07-31T10:31:43;6.30;;;1.88;;
69083;SDS011;56185;48.526;9.044;2023-07-31T10:34:09;6.03;;;1.95;;
69083;SDS011;56185;48.526;9.044;2023-07-31T10:36:35;5.65;;;1.73;;
69083;SDS011;56185;48.526;9.044;2023-07-31T10:39:00;3.13;;;1.50;;
69083;SDS011;56185;48.526;9.044;2023-07-31T10:41:32;5.00;;;1.80;;
69083;SDS011;56185;48.526;9.044;2023-07-31T10:43:58;5.20;;;2.08;;
69083;SDS011;56185;48.526;9.044;2023-07-31T10:46:24;5.15;;;1.80;;
69083;SDS011;56185;48.526;9.044;2023-07-31T10:48:57;4.63;;;1.90;;
69083;SDS011;56185;48.526;9.044;2023-07-31T10:51:23;3.17;;;1.42;;
69083;SDS011;56185;48.526;9.044;2023-07-31T10:53:48;5.53;;;1.70;;
69083;SDS011;56185;48.526;9.044;2023-07-31T10:56:13;5.23;;;1.90;;
69083;SDS011;56185;48.526;9.044;2023-07-31T10:58:39;4.28;;;1.88;;
69083;SDS011;56185;48.526;9.044;2023-07-31T11:01:05;5.20;;;1.70;;
69083;SDS011;56185;48.526;9.044;2023-07-31T11:03:46;4.07;;;1.80;;
69083;SDS011;56185;48.526;9.044;2023-07-31T11:06:13;5.13;;;1.63;;
69083;SDS011;56185;48.526;9.044;2023-07-31T11:08:43;5.03;;;1.70;;
69083;SDS011;56185;48.526;9.044;2023-07-31T11:11:14;4.22;;;1.85;;
69083;SDS011;56185;48.526;9.044;2023-07-31T11:13:42;5.03;;;1.70;;
69083;SDS011;56185;48.526;9.044;2023-07-31T11:16:10;4.38;;;1.90;;
69083;SDS011;56185;48.526;9.044;2023-07-31T11:18:39;4.97;;;1.70;;
69083;SDS011;56185;48.526;9.044;2023-07-31T11:21:05;3.15;;;1.65;;
69083;SDS011;56185;48.526;9.044;2023-07-31T11:23:31;4.22;;;1.80;;
69083;SDS011;56185;48.526;9.044;2023-07-31T11:25:58;4.33;;;1.90;;
69083;SDS011;56185;48.526;9.044;2023-07-31T11:28:25;3.30;;;1.83;;
69083;SDS011;56185;48.526;9.044;2023-07-31T11:30:50;3.83;;;1.88;;
69083;SDS011;56185;48.526;9.044;2023-07-31T11:33:15;2.63;;;1.60;;
69083;SDS011;56185;48.526;9.044;2023-07-31T11:35:43;3.83;;;1.80;;
69083;SDS011;56185;48.526;9.044;2023-07-31T11:38:11;3.42;;;1.65;;
69083;SDS011;56185;48.526;9.044;2023-07-31T11:40:43;3.25;;;1.67;;
69083;SDS011;56185;48.526;9.044;2023-07-31T11:43:09;4.72;;;1.80;;
69083;SDS011;56185;48.526;9.044;2023-07-31T11:45:35;4.28;;;1.90;;
69083;SDS011;56185;48.526;9.044;2023-07-31T11:48:00;3.10;;;1.42;;
69083;SDS011;56185;48.526;9.044;2023-07-31T11:50:26;4.18;;;1.90;;
69083;SDS011;56185;48.526;9.044;2023-07-31T11:52:55;4.28;;;1.90;;
69083;SDS011;56185;48.526;9.044;2023-07-31T11:55:24;4.65;;;1.90;;
69083;SDS011;56185;48.526;9.044;2023-07-31T11:57:50;4.78;;;2.20;;
69083;SDS011;56185;48.526;9.044;2023-07-31T12:00:17;3.08;;;1.60;;
69083;SDS011;56185;48.526;9.044;2023-07-31T12:02:42;4.45;;;1.95;;
69083;SDS011;56185;48.526;9.044;2023-07-31T12:05:12;4.30;;;1.90;;
69083;SDS011;56185;48.526;9.044;2023-07-31T12:07:44;4.57;;;1.80;;
69083;SDS011;56185;48.526;9.044;2023-07-31T12:10:10;3.22;;;1.88;;
69083;SDS011;56185;48.526;9.044;2023-07-31T12:12:36;5.88;;;2.03;;
69083;SDS011;56185;48.526;9.044;2023-07-31T12:15:01;4.40;;;2.17;;
69083;SDS011;56185;48.526;9.044;2023-07-31T12:17:27;4.60;;;2.10;;
69083;SDS011;56185;48.526;9.044;2023-07-31T12:19:52;4.30;;;2.03;;
69083;SDS011;56185;48.526;9.044;2023-07-31T12:22:17;3.13;;;1.90;;
69083;SDS011;56185;48.526;9.044;2023-07-31T12:24:45;6.55;;;2.10;;
69083;SDS011;56185;48.526;9.044;2023-07-31T12:27:10;4.97;;;1.93;;
69083;SDS011;56185;48.526;9.044;2023-07-31T12:29:37;5.47;;;1.85;;
69083;SDS011;56185;48.526;9.044;2023-07-31T12:32:03;4.97;;;1.90;;
69083;SDS011;56185;48.526;9.044;2023-07-31T12:34:28;4.03;;;1.80;;
69083;SDS011;56185;48.526;9.044;2023-07-31T12:36:54;4.47;;;2.00;;
69083;SDS011;56185;48.526;9.044;2023-07-31T12:39:19;5.70;;;2.00;;
69083;SDS011;56185;48.526;9.044;2023-07-31T12:41:44;4.30;;;1.90;;
69083;SDS011;56185;48.526;9.044;2023-07-31T12:44:09;3.83;;;1.97;;
69083;SDS011;56185;48.526;9.044;2023-07-31T12:46:35;5.27;;;2.27;;
69083;SDS011;56185;48.526;9.044;2023-07-31T12:49:00;4.23;;;1.87;;
69083;SDS011;56185;48.526;9.044;2023-07-31T12:51:25;2.67;;;1.70;;
69083;SDS011;56185;48.526;9.044;2023-07-31T12:53:50;5.20;;;2.00;;
69083;SDS011;56185;48.526;9.044;2023-07-31T12:56:16;5.00;;;2.27;;
69083;SDS011;56185;48.526;9.044;2023-07-31T12:58:41;5.10;;;1.90;;
69083;SDS011;56185;48.526;9.044;2023-07-31T13:01:06;4.23;;;1.67;;
69083;SDS011;56185;48.526;9.044;2023-07-31T13:03:34;4.57;;;1.90;;
69083;SDS011;56185;48.526;9.044;2023-07-31T13:06:00;5.60;;;2.08;;
69083;SDS011;56185;48.526;9.044;2023-07-31T13:08:25;3.25;;;1.60;;
69083;SDS011;56185;48.526;9.044;2023-07-31T13:10:50;5.30;;;1.80;;
69083;SDS011;56185;48.526;9.044;2023-07-31T13:13:16;3.30;;;1.80;;
69083;SDS011;56185;48.526;9.044;2023-07-31T13:15:41;3.73;;;1.70;;
69083;SDS011;56185;48.526;9.044;2023-07-31T13:18:06;4.85;;;1.95;;
69083;SDS011;56185;48.526;9.044;2023-07-31T13:20:31;3.80;;;1.90;;
69083;SDS011;56185;48.526;9.044;2023-07-31T13:22:57;3.47;;;2.03;;
69083;SDS011;56185;48.526;9.044;2023-07-31T13:25:22;3.57;;;2.17;;
69083;SDS011;56185;48.526;9.044;2023-07-31T13:27:47;4.10;;;2.00;;
69083;SDS011;56185;48.526;9.044;2023-07-31T13:30:12;3.60;;;1.70;;
69083;SDS011;56185;48.526;9.044;2023-07-31T13:32:38;5.80;;;2.00;;
69083;SDS011;56185;48.526;9.044;2023-07-31T13:35:03;3.50;;;1.90;;
69083;SDS011;56185;48.526;9.044;2023-07-31T13:37:32;6.68;;;1.77;;
69083;SDS011;56185;48.526;9.044;2023-07-31T13:39:57;3.73;;;1.97;;
69083;SDS011;56185;48.526;9.044;2023-07-31T13:42:22;3.73;;;1.90;;
69083;SDS011;56185;48.526;9.044;2023-07-31T13:44:47;3.80;;;1.80;;
69083;SDS011;56185;48.526;9.044;2023-07-31T13:47:13;5.40;;;2.00;;
69083;SDS011;56185;48.526;9.044;2023-07-31T13:49:38;5.63;;;1.80;;
69083;SDS011;56185;48.526;9.044;2023-07-31T13:52:03;3.67;;;1.80;;
69083;SDS011;56185;48.526;9.044;2023-07-31T13:54:29;3.88;;;2.05;;
69083;SDS011;56185;48.526;9.044;2023-07-31T13:56:54;4.80;;;1.80;;
69083;SDS011;56185;48.526;9.044;2023-07-31T13:59:19;4.57;;;1.60;;
69083;SDS011;56185;48.526;9.044;2023-07-31T14:01:45;3.75;;;2.03;;
69083;SDS011;56185;48.526;9.044;2023-07-31T14:04:11;4.22;;;2.10;;
69083;SDS011;56185;48.526;9.044;2023-07-31T14:06:36;5.03;;;1.95;;
69083;SDS011;56185;48.526;9.044;2023-07-31T14:09:02;7.63;;;2.23;;
69083;SDS011;56185;48.526;9.044;2023-07-31T14:11:28;4.75;;;1.92;;
69083;SDS011;56185;48.526;9.044;2023-07-31T14:13:53;4.40;;;1.90;;
69083;SDS011;56185;48.526;9.044;2023-07-31T14:16:18;5.00;;;1.90;;
69083;SDS011;56185;48.526;9.044;2023-07-31T14:18:44;4.13;;;2.00;;
69083;SDS011;56185;48.526;9.044;2023-07-31T14:21:09;3.83;;;2.00;;
69083;SDS011;56185;48.526;9.044;2023-07-31T14:23:34;4.38;;;2.10;;
69083;SDS011;56185;48.526;9.044;2023-07-31T14:25:59;5.20;;;2.00;;
69083;SDS011;56185;48.526;9.044;2023-07-31T14:28:25;3.80;;;1.90;;
69083;SDS011;56185;48.526;9.044;2023-07-31T14:30:50;4.17;;;2.00;;
69083;SDS011;56185;48.526;9.044;2023-07-31T14:33:15;4.03;;;2.00;;
69083;SDS011;56185;48.526;9.044;2023-07-31T14:35:41;2.87;;;1.63;;
69083;SDS011;56185;48.526;9.044;2023-07-31T14:38:06;5.47;;;2.20;;
69083;SDS011;56185;48.526;9.044;2023-07-31T14:40:31;4.03;;;2.07;;
69083;SDS011;56185;48.526;9.044;2023-07-31T14:42:57;2.90;;;1.67;;
69083;SDS011;56185;48.526;9.044;2023-07-31T14:45:22;4.83;;;2.27;;
69083;SDS011;56185;48.526;9.044;2023-07-31T14:47:47;3.88;;;1.73;;
69083;SDS011;56185;48.526;9.044;2023-07-31T14:50:12;4.33;;;1.90;;
69083;SDS011;56185;48.526;9.044;2023-07-31T14:52:38;4.57;;;2.00;;
69083;SDS011;56185;48.526;9.044;2023-07-31T14:55:03;6.65;;;2.20;;
69083;SDS011;56185;48.526;9.044;2023-07-31T14:57:29;4.15;;;2.00;;
69083;SDS011;56185;48.526;9.044;2023-07-31T14:59:54;4.20;;;1.90;;
69083;SDS011;56185;48.526;9.044;2023-07-31T15:02:19;4.57;;;2.00;;